Princeton Airport
CYDC : now visible

Airfield :











YOU CAN JOIN US ON...

 
LOGIN :

Register | Disclaimer

   EN    FR    IT 

 









Legend :    VFR   Marginal VFR   IFR   Intensive IFR   Very Intensive IFR
Visi :
Ceiling :
>= 8 km
>= 3000ft
5 to 8 km
1000 to 3000 ft
1500m to 5 km
500 to 1000 ft
800 to 1500m
200 to 500 ft
< 800m
< 200 ft
Symbols :   Thunderstorms  Fog  Heavy snow  Heavy precipitations  Wind > 20 kt







- Airport Elevation : 2298 ft


CYDC - Princeton

CURRENT METAR :
  • 181700Z 00000KT 4SM -RA FEW005 FEW025 BKN042 OVC056 08/07 A2990 RMK SF1ST1SC5SC2 SF TR SLP131

EXPIRED METARs :
  • 181600Z 00000KT 9SM -RA FEW007 FEW015 FEW029 BKN039 OVC048 08/07 A2989 RMK SF1SF1SC1SC6SC2 SF TR SF TR SC TR SLP126
  • 181500Z 00000KT 15SM -RA FEW028 BKN044 OVC062 08/07 A2988 RMK SF1SC6SC2 SF TR SLP122

TAF N/A
No reported NOTAMs for that airfield.



MET'MAP, your aeronautical weather chart ! - Copyright ORBIFLY December 2007 - Disclaimer

ORBIFLY MET'MAP TEAM :

Programming & Development : Alexandra Zaïnal
Concept & Development : Baudouin d'Aumeries
Co-Development & Prog : Marc-Olivier Méhu
Technical & hardware support : Manuel Goepfert

Contact : metmap@orbifly.com




SOURCES & CREDITS :

   NOAA       Earth
Advisory